Time;durP1;ratioP1;P1;durP2;ratioP2;P2;SDS_P1;SDS_P2;PMS_P1;PMS_P2;Temp;Humidity;BMP_temperature;BMP_pressure;BME280_temperature;BME280_humidity;BME280_pressure;Samples;Min_cycle;Max_cycle;Signal;HPM_P1;HPM_P2
2021/10/28 00:14:27;;;;;;;18.23;13.38;;;;;;;21.47;56.18;101875.44;1763960;80;21009;-49
2021/10/28 00:16:57;;;;;;;19.05;13.62;;;;;;;21.45;56.17;101869.36;1761162;80;20878;-48
2021/10/28 00:19:21;;;;;;;16.40;12.63;;;;;;;21.43;56.17;101871.86;1759729;80;21186;-46
2021/10/28 00:21:49;;;;;;;17.00;13.03;;;;;;;21.43;56.16;101873.24;1768329;79;21063;-47
2021/10/28 00:24:15;;;;;;;18.07;13.20;;;;;;;21.44;56.17;101872.69;1766425;80;21120;-47
2021/10/28 00:26:44;;;;;;;16.93;13.88;;;;;;;21.43;56.16;101869.64;1764325;80;21127;-48
2021/10/28 00:29:18;;;;;;;18.98;13.50;;;;;;;21.43;56.15;101868.27;1721588;82;21072;-49
2021/10/28 00:31:45;;;;;;;17.60;13.20;;;;;;;21.43;56.13;101869.64;1737430;81;21398;-50
2021/10/28 00:34:16;;;;;;;16.85;12.90;;;;;;;21.43;56.09;101870.48;1724239;81;21064;-48
2021/10/28 00:36:40;;;;;;;18.00;13.30;;;;;;;21.43;56.09;101869.09;1761606;80;21020;-49
2021/10/28 00:39:08;;;;;;;19.92;12.93;;;;;;;21.44;56.06;101865.77;1764551;80;21532;-49
2021/10/28 00:41:35;;;;;;;17.25;12.75;;;;;;;21.43;56.03;101853.86;1760558;79;21602;-48
2021/10/28 00:44:01;;;;;;;15.70;13.00;;;;;;;21.43;56.01;101862.17;1774280;80;21263;-48
2021/10/28 00:46:31;;;;;;;18.65;12.65;;;;;;;21.44;55.98;101856.08;1760393;80;21075;-47
2021/10/28 00:48:58;;;;;;;18.20;12.75;;;;;;;21.43;55.95;101856.39;1745037;80;22256;-47
2021/10/28 00:51:27;;;;;;;17.12;12.80;;;;;;;21.40;55.96;101853.64;1740308;81;21143;-47
2021/10/28 00:53:54;;;;;;;17.50;12.70;;;;;;;21.40;55.92;101850.31;1707348;83;21096;-49
2021/10/28 00:56:22;;;;;;;14.73;12.03;;;;;;;21.38;55.92;101852.58;1706490;83;22167;-50
2021/10/28 00:58:49;;;;;;;16.32;12.20;;;;;;;21.39;55.92;101851.98;1677337;83;21144;-48
2021/10/28 01:01:15;;;;;;;18.15;12.95;;;;;;;21.38;55.89;101852.58;1685310;84;21119;-50
2021/10/28 01:03:41;;;;;;;18.25;12.53;;;;;;;21.38;55.90;101849.81;1680261;84;21839;-51
2021/10/28 01:06:08;;;;;;;17.57;13.13;;;;;;;21.37;55.85;101855.08;1705573;82;21590;-47
2021/10/28 01:08:38;;;;;;;17.12;12.20;;;;;;;21.38;55.85;101853.96;1682577;84;22355;-49
2021/10/28 01:11:05;;;;;;;16.25;12.13;;;;;;;21.38;55.83;101854.52;1685610;83;21459;-50
2021/10/28 01:13:31;;;;;;;18.35;13.00;;;;;;;21.38;55.78;101848.98;1664728;84;21155;-47
2021/10/28 01:15:58;;;;;;;17.42;12.45;;;;;;;21.37;55.73;101850.09;1674791;84;21589;-47
2021/10/28 01:18:24;;;;;;;16.67;12.35;;;;;;;21.38;55.71;101848.98;1667190;84;21136;-49
2021/10/28 01:20:52;;;;;;;17.77;12.78;;;;;;;21.38;55.70;101848.42;1669402;84;22147;-50
2021/10/28 01:23:23;;;;;;;19.35;12.63;;;;;;;21.38;55.65;101843.44;1704498;83;21569;-48
2021/10/28 01:25:56;;;;;;;;;;;;;;;21.38;55.63;101848.98;1709090;82;21083;-47
2021/10/28 01:28:24;;;;;;;16.00;12.23;;;;;;;21.37;55.61;101845.94;1705489;83;20252;-51
2021/10/28 01:30:52;;;;;;;18.05;12.53;;;;;;;21.34;55.58;101847.34;1677023;84;21063;-51
2021/10/28 01:33:19;;;;;;;16.45;11.93;;;;;;;21.34;55.59;101852.08;1675267;83;21242;-50
2021/10/28 01:35:45;;;;;;;14.30;11.28;;;;;;;21.32;55.59;101856.52;1680746;84;21164;-49
2021/10/28 01:38:13;;;;;;;16.42;11.97;;;;;;;21.32;55.56;101851.54;1710044;82;21031;-52
2021/10/28 01:40:40;;;;;;;15.23;11.33;;;;;;;21.32;55.56;101853.75;1701101;82;21522;-48
2021/10/28 01:43:06;;;;;;;17.15;11.93;;;;;;;21.30;55.56;101851.83;1707255;82;21060;-48
2021/10/28 01:45:32;;;;;;;15.00;11.63;;;;;;;21.30;55.53;101853.21;1713651;82;21538;-49
2021/10/28 01:47:59;;;;;;;15.80;11.73;;;;;;;21.30;55.49;101853.21;1721768;81;21076;-49
2021/10/28 01:50:28;;;;;;;16.57;12.25;;;;;;;21.31;55.48;101859.02;1735045;81;21071;-49
2021/10/28 01:52:53;;;;;;;17.57;12.07;;;;;;;21.31;55.47;101859.02;1734999;81;21048;-47
2021/10/28 01:55:19;;;;;;;16.07;11.22;;;;;;;21.31;55.44;101857.63;1706765;82;20937;-49
2021/10/28 01:57:45;;;;;;;16.97;12.15;;;;;;;21.33;55.39;101860.12;1697683;82;21951;-48
2021/10/28 02:00:19;;;;;;;17.23;11.45;;;;;;;21.32;55.35;101852.37;1701523;83;20917;-51
2021/10/28 02:02:45;;;;;;;17.62;12.18;;;;;;;21.32;55.31;101852.37;1713013;82;22568;-52
2021/10/28 02:05:16;;;;;;;15.70;11.38;;;;;;;21.32;55.30;101853.75;1699947;83;21797;-50
2021/10/28 02:07:43;;;;;;;15.13;11.18;;;;;;;21.31;55.26;101853.48;1746736;81;22118;-48
2021/10/28 02:10:10;;;;;;;14.80;12.10;;;;;;;21.30;55.25;101851.03;1734917;81;21077;-48
2021/10/28 02:12:38;;;;;;;13.70;10.90;;;;;;;21.28;55.21;101854.09;1745938;81;21643;-50
2021/10/28 02:15:10;;;;;;;15.18;11.68;;;;;;;21.28;55.20;101853.26;1699468;82;21553;-51
2021/10/28 02:17:37;;;;;;;15.43;11.08;;;;;;;21.27;55.18;101857.14;1719710;82;21609;-49
2021/10/28 02:20:07;;;;;;;16.65;11.22;;;;;;;21.27;55.16;101859.35;1721528;83;21076;-49
2021/10/28 02:22:34;;;;;;;15.60;11.50;;;;;;;21.26;55.15;101852.75;1706934;82;21630;-48
2021/10/28 02:25:01;;;;;;;13.55;11.08;;;;;;;21.26;55.12;101856.90;1746951;81;21059;-45
2021/10/28 02:27:27;;;;;;;13.93;10.78;;;;;;;21.27;55.11;101854.37;1739876;81;21137;-46
2021/10/28 02:29:53;;;;;;;16.55;11.08;;;;;;;21.26;55.09;101854.13;1744442;81;21589;-48
2021/10/28 02:32:19;;;;;;;14.73;11.22;;;;;;;21.26;55.04;101853.54;1752058;80;21072;-49
2021/10/28 02:34:45;;;;;;;14.30;10.18;;;;;;;21.26;55.01;101852.75;1751452;81;21235;-49
2021/10/28 02:37:11;;;;;;;14.98;10.65;;;;;;;21.26;54.97;101849.98;1751829;80;21115;-51
2021/10/28 02:39:38;;;;;;;13.40;10.40;;;;;;;21.25;54.96;101849.15;1746449;80;20933;-50
2021/10/28 02:42:06;;;;;;;15.30;11.20;;;;;;;21.26;54.93;101853.54;1747743;81;21072;-48
2021/10/28 02:44:32;;;;;;;15.48;11.18;;;;;;;21.26;54.92;101855.52;1752321;80;21565;-48
2021/10/28 02:46:58;;;;;;;12.85;10.28;;;;;;;21.26;54.87;101855.52;1747827;81;21208;-48
2021/10/28 02:49:26;;;;;;;15.98;10.82;;;;;;;21.25;54.86;101851.92;1755258;81;22407;-47
2021/10/28 02:51:52;;;;;;;13.22;10.20;;;;;;;21.25;54.81;101856.63;1745508;80;21135;-49
2021/10/28 02:54:20;;;;;;;13.43;9.95;;;;;;;21.23;54.79;101854.70;1695276;82;21486;-48
2021/10/28 02:56:46;;;;;;;16.05;11.08;;;;;;;21.23;54.77;101853.31;1736948;81;21534;-53
2021/10/28 02:59:13;;;;;;;14.43;10.23;;;;;;;21.22;54.76;101850.28;1742331;81;21209;-50
2021/10/28 03:01:49;;;;;;;12.88;9.63;;;;;;;21.20;54.77;101851.98;1740678;81;21711;-50
2021/10/28 03:04:20;;;;;;;13.90;10.00;;;;;;;21.21;54.73;101850.87;1743580;81;21466;-48
2021/10/28 03:06:47;;;;;;;13.32;10.25;;;;;;;21.20;54.73;101856.69;1701323;82;21116;-49
2021/10/28 03:09:21;;;;;;;12.05;7.92;;;;;;;21.20;54.75;101851.98;1743669;81;21123;-50
2021/10/28 03:11:50;;;;;;;11.00;7.92;;;;;;;21.23;54.74;101854.14;1738750;81;21098;-51
2021/10/28 03:14:19;;;;;;;9.70;6.85;;;;;;;21.27;54.71;101849.66;1738710;81;21146;-50
2021/10/28 03:16:53;;;;;;;10.25;7.35;;;;;;;21.31;54.65;101852.66;1698044;83;21021;-52
2021/10/28 03:19:37;;;;;;;10.45;7.17;;;;;;;21.34;54.60;101857.03;1742486;81;21656;-51
2021/10/28 03:27:28;;;;;;;10.82;7.87;;;;;;;21.44;54.42;101858.84;1743417;81;21041;-49
2021/10/28 03:29:55;;;;;;;11.68;7.67;;;;;;;21.46;54.38;101865.48;1747302;81;21075;-52
2021/10/28 03:32:25;;;;;;;9.33;7.05;;;;;;;21.48;54.32;101864.60;1696234;82;21070;-47
2021/10/28 03:34:52;;;;;;;9.88;7.55;;;;;;;21.50;54.30;101863.77;1698140;82;21656;-50
2021/10/28 03:37:29;;;;;;;10.18;7.83;;;;;;;21.52;54.27;101865.09;1729263;81;21530;-51
2021/10/28 03:45:29;;;;;;;10.38;7.70;;;;;;;21.57;54.19;101869.19;1715278;83;21011;-50
2021/10/28 04:06:33;;;;;;;8.93;6.87;;;;;;;21.73;53.98;101880.86;1763805;80;20944;-51
2021/10/28 04:30:16;;;;;;;8.28;6.50;;;;;;;21.81;53.91;101881.00;1775955;80;21056;-47
2021/10/28 04:32:42;;;;;;;9.70;6.83;;;;;;;21.81;53.90;101886.55;1692375;82;21072;-49
2021/10/28 04:35:09;;;;;;;9.83;7.22;;;;;;;21.83;53.90;101893.19;1710428;83;21514;-47
2021/10/28 04:37:37;;;;;;;8.83;6.30;;;;;;;21.83;53.88;101895.39;1707840;81;21115;-49
2021/10/28 04:40:08;;;;;;;7.40;5.83;;;;;;;21.83;53.87;101898.73;1707210;82;21170;-49
2021/10/28 04:42:34;;;;;;;9.20;6.33;;;;;;;21.83;53.87;101893.19;1708246;82;21079;-47
2021/10/28 04:45:00;;;;;;;8.08;5.40;;;;;;;21.83;53.88;101895.39;1714660;82;21120;-50
2021/10/28 04:47:26;;;;;;;7.12;5.22;;;;;;;21.84;53.88;101899.82;1765655;80;21068;-49
2021/10/28 04:49:52;;;;;;;7.05;4.55;;;;;;;21.84;53.88;101894.84;1770492;79;21126;-48
2021/10/28 04:52:21;;;;;;;7.22;5.80;;;;;;;21.85;53.89;101897.87;1777700;80;20991;-49
2021/10/28 04:54:46;;;;;;;7.22;5.58;;;;;;;21.85;53.84;101897.87;1770032;79;21559;-46
2021/10/28 04:57:12;;;;;;;6.60;4.65;;;;;;;21.86;53.82;101893.40;1733025;81;21104;-47
2021/10/28 04:59:38;;;;;;;7.20;5.72;;;;;;;21.86;53.80;101893.40;1724861;81;21064;-48
2021/10/28 05:02:05;;;;;;;7.67;5.60;;;;;;;21.86;53.80;101900.33;1743845;81;21541;-48
2021/10/28 05:04:31;;;;;;;7.80;5.70;;;;;;;21.87;53.78;101897.83;1744630;81;21116;-47
2021/10/28 05:06:57;;;;;;;8.05;6.28;;;;;;;21.87;53.76;101897.83;1748943;81;21308;-50
2021/10/28 05:09:26;;;;;;;8.63;6.25;;;;;;;21.87;53.76;101895.06;1734690;81;21112;-47
2021/10/28 05:11:51;;;;;;;9.58;7.00;;;;;;;21.86;53.76;101905.05;1730087;81;21687;-45
2021/10/28 05:14:17;;;;;;;9.30;7.42;;;;;;;21.87;53.79;101909.47;1744119;81;20978;-49
2021/10/28 05:16:43;;;;;;;9.40;7.60;;;;;;;21.87;53.74;101908.91;1737853;81;21698;-48
2021/10/28 05:19:09;;;;;;;11.53;7.55;;;;;;;21.86;53.62;101916.12;1742078;81;21483;-51
2021/10/28 05:21:35;;;;;;;12.93;7.30;;;;;;;21.87;53.47;101917.22;1739734;81;20991;-47
2021/10/28 05:24:01;;;;;;;17.15;9.23;;;;;;;21.87;53.32;101917.78;1746209;81;21685;-48
2021/10/28 05:26:28;;;;;;;43.68;18.30;;;;;;;21.88;53.25;101916.11;1750150;81;21115;-46
2021/10/28 05:28:54;;;;;;;40.43;16.73;;;;;;;21.88;53.21;101916.11;1740797;81;20997;-49
2021/10/28 05:31:21;;;;;;;43.70;18.62;;;;;;;21.90;53.29;101913.61;1741477;81;21565;-50
2021/10/28 05:33:49;;;;;;;66.55;21.60;;;;;;;21.90;53.37;101912.22;1742360;81;21181;-52
2021/10/28 05:36:15;;;;;;;32.15;12.93;;;;;;;21.92;53.43;101911.34;1742685;80;21056;-52
2021/10/28 05:38:41;;;;;;;28.50;11.33;;;;;;;21.91;53.49;101911.90;1732456;81;21131;-51
2021/10/28 05:41:08;;;;;;;23.18;9.63;;;;;;;21.92;53.51;101921.04;1717521;81;21037;-53
2021/10/28 05:43:34;;;;;;;15.98;7.72;;;;;;;21.91;53.58;101929.08;1694527;83;21480;-52
2021/10/28 05:46:01;;;;;;;31.80;12.55;;;;;;;21.89;53.63;101923.86;1719847;83;21494;-49
2021/10/28 05:48:27;;;;;;;64.35;20.72;;;;;;;21.87;53.67;101926.92;1722927;83;21111;-56
2021/10/28 05:50:53;;;;;;;38.25;13.90;;;;;;;21.89;53.71;101930.78;1738373;81;21041;-56
2021/10/28 05:53:19;;;;;;;28.50;10.28;;;;;;;21.88;53.76;101931.34;1696829;83;21108;-57
2021/10/28 05:55:48;;;;;;;17.80;7.95;;;;;;;21.87;53.78;101929.69;1761038;80;21506;-56
2021/10/28 05:58:14;;;;;;;20.48;9.13;;;;;;;21.88;53.80;101935.50;1731129;80;21569;-56
2021/10/28 06:00:40;;;;;;;15.98;7.37;;;;;;;21.88;53.82;101938.83;1761738;80;21071;-57
2021/10/28 06:03:06;;;;;;;11.33;7.10;;;;;;;21.88;53.82;101938.83;1758793;80;20917;-56
2021/10/28 06:05:32;;;;;;;14.07;7.40;;;;;;;21.88;53.83;101943.81;1769524;80;21063;-56
2021/10/28 06:07:58;;;;;;;15.38;7.95;;;;;;;21.89;53.82;101950.18;1768087;80;21181;-56
2021/10/28 06:10:24;;;;;;;14.70;8.08;;;;;;;21.89;53.80;101948.80;1766204;80;21375;-57
2021/10/28 06:12:54;;;;;;;16.05;8.48;;;;;;;21.87;53.76;101951.85;1760198;79;21075;-56
2021/10/28 06:15:21;;;;;;;13.65;6.87;;;;;;;21.86;53.75;101959.89;1761644;80;21150;-56
2021/10/28 06:17:59;;;;;;;15.50;8.18;;;;;;;21.84;53.76;101966.31;1763797;80;21092;-57
2021/10/28 06:20:24;;;;;;;14.47;7.42;;;;;;;21.82;53.77;101969.92;1721086;82;21148;-56
2021/10/28 06:22:50;;;;;;;14.93;7.12;;;;;;;21.81;53.78;101965.50;1731136;81;21060;-56
2021/10/28 06:25:18;;;;;;;13.85;7.28;;;;;;;21.81;53.79;101981.33;1709348;82;21572;-56
2021/10/28 06:27:44;;;;;;;11.60;7.15;;;;;;;21.80;53.79;101977.73;1711673;82;22130;-56
2021/10/28 06:30:11;;;;;;;15.32;7.35;;;;;;;21.81;53.80;101981.33;1763562;80;21126;-56
2021/10/28 06:32:52;;;;;;;11.75;7.33;;;;;;;21.79;53.79;101984.94;1759579;80;21064;-56
2021/10/28 06:35:17;;;;;;;16.42;7.90;;;;;;;21.80;53.80;101985.20;1765703;80;21072;-57
2021/10/28 06:37:49;;;;;;;13.25;7.12;;;;;;;21.80;53.80;101992.14;1764306;80;21699;-57
2021/10/28 06:40:12;;;;;;;12.50;7.28;;;;;;;21.79;53.77;101984.38;1762237;80;21534;-56
2021/10/28 06:42:38;;;;;;;10.23;7.22;;;;;;;21.80;53.75;101978.28;1767615;80;21082;-56
2021/10/28 06:45:05;;;;;;;13.25;7.58;;;;;;;21.79;53.74;101981.61;1765938;80;21937;-56
2021/10/28 06:47:31;;;;;;;11.08;7.30;;;;;;;21.78;53.72;101981.34;1760448;79;21107;-57
2021/10/28 06:50:05;;;;;;;12.37;7.15;;;;;;;21.77;53.73;101980.24;1766672;79;21067;-57
2021/10/28 06:52:35;;;;;;;13.50;7.35;;;;;;;21.75;53.70;101981.12;1772136;79;21059;-56
2021/10/28 06:54:54;;;;;;;11.28;6.97;;;;;;;21.73;53.71;101982.78;1761411;80;21107;-56
2021/10/28 07:02:37;;;;;;;10.35;6.67;;;;;;;21.72;53.72;101988.64;1775276;79;21076;-57
2021/10/28 07:05:05;;;;;;;10.78;6.22;;;;;;;21.72;53.71;101989.47;1770606;80;21502;-57
2021/10/28 07:07:32;;;;;;;11.03;7.05;;;;;;;21.72;53.71;101988.64;1766970;80;21067;-56
2021/10/28 07:15:09;;;;;;;10.90;6.92;;;;;;;21.72;53.67;101987.26;1770691;79;21546;-57
2021/10/28 07:20:45;;;;;;;11.35;7.20;;;;;;;21.72;53.63;101983.93;1767907;79;21004;-56
2021/10/28 07:23:16;;;;;;;13.22;6.80;;;;;;;21.70;53.60;101988.93;1770419;80;21710;-56
2021/10/28 07:28:37;;;;;;;11.95;7.15;;;;;;;21.67;53.60;101992.86;1770161;80;21118;-57
2021/10/28 07:34:44;;;;;;;13.95;6.90;;;;;;;21.65;53.61;101990.93;1769939;80;21486;-56
2021/10/28 08:19:31;;;;;;;12.10;7.10;;;;;;;21.56;53.52;101976.91;1775591;80;21035;-56
2021/10/28 08:29:49;;;;;;;12.05;7.80;;;;;;;21.54;53.53;101972.25;1766943;80;21142;-56
2021/10/28 08:32:10;;;;;;;10.88;7.22;;;;;;;21.54;53.55;101973.63;1771802;80;21174;-56
2021/10/28 08:34:40;;;;;;;12.75;8.28;;;;;;;21.54;53.57;101967.27;1732471;80;21081;-55
2021/10/28 08:37:12;;;;;;;11.45;7.35;;;;;;;21.53;53.59;101969.20;1718095;80;21134;-55
2021/10/28 08:39:45;;;;;;;14.15;8.30;;;;;;;21.53;53.65;101966.99;1713563;80;36972;-54
2021/10/28 08:42:14;;;;;;;12.30;9.83;;;;;;;21.52;53.66;101968.94;1774431;79;22747;-54
2021/10/28 08:44:44;;;;;;;15.45;11.28;;;;;;;21.53;53.65;101966.44;1768591;80;21122;-56
2021/10/28 08:47:10;;;;;;;17.65;10.93;;;;;;;21.54;53.68;101965.87;1733359;80;21143;-55
2021/10/28 08:49:50;;;;;;;16.30;11.38;;;;;;;21.55;53.66;101969.75;1764872;80;21484;-54
2021/10/28 09:00:18;;;;;;;23.57;14.55;;;;;;;21.57;53.62;101956.97;1766390;80;20932;-56
2021/10/28 09:24:47;;;;;;;23.25;16.17;;;;;;;21.52;53.50;101950.94;1762367;80;21699;-54
2021/10/28 09:27:15;;;;;;;21.95;15.32;;;;;;;21.53;53.44;101940.69;1767060;80;21531;-54
2021/10/28 09:44:05;;;;;;;22.22;16.55;;;;;;;21.46;52.15;101927.22;1768509;80;21446;-53
2021/10/28 09:46:37;;;;;;;24.95;16.60;;;;;;;21.46;51.55;101933.31;1701759;83;21115;-53
2021/10/28 09:51:58;;;;;;;24.02;16.82;;;;;;;21.45;50.46;101931.09;1700507;83;21032;-53
2021/10/28 10:00:14;;;;;;;38.20;20.57;;;;;;;21.43;49.25;101920.31;1685022;82;21169;-44
2021/10/28 10:02:43;;;;;;;38.55;19.55;;;;;;;21.41;49.20;101912.88;1706591;82;21487;-44
2021/10/28 10:05:20;;;;;;;32.88;18.55;;;;;;;21.38;49.18;101912.09;1729537;81;21566;-44
2021/10/28 10:07:49;;;;;;;36.63;20.00;;;;;;;21.38;49.25;101916.80;1704526;82;21067;-46
2021/10/28 10:10:20;;;;;;;31.03;18.60;;;;;;;21.36;49.31;101906.57;1733060;81;21103;-45
2021/10/28 10:12:47;;;;;;;31.95;18.10;;;;;;;21.36;49.44;101909.34;1715165;82;21099;-45
2021/10/28 10:15:13;;;;;;;31.12;17.02;;;;;;;21.34;49.55;101907.45;1727960;81;21558;-44
2021/10/28 10:17:41;;;;;;;26.52;16.77;;;;;;;21.33;49.68;101909.38;1698428;82;21202;-47
2021/10/28 10:20:13;;;;;;;30.80;16.62;;;;;;;21.32;49.77;101911.87;1726780;81;21084;-47
2021/10/28 10:26:01;;;;;;;24.45;15.58;;;;;;;21.34;49.73;101905.47;1716279;83;21143;-53
2021/10/28 11:04:31;;;;;;;20.20;13.20;;;;;;;21.52;54.95;101869.81;1676183;83;21237;-46
2021/10/28 11:26:22;;;;;;;20.00;13.05;;;;;;;21.65;56.63;101838.61;1717592;82;21119;-47
2021/10/28 11:29:01;;;;;;;21.37;13.83;;;;;;;21.65;56.80;101832.50;1712655;82;21076;-50
2021/10/28 12:17:02;;;;;;;17.10;12.13;;;;;;;21.89;58.91;101799.19;1718101;80;20964;-47
2021/10/28 12:49:55;;;;;;;13.40;10.30;;;;;;;22.02;59.69;101785.97;1767971;80;21115;-47
2021/10/28 15:02:47;;;;;;;10.55;8.05;;;;;;;21.47;62.10;101755.83;1775459;80;20976;-46
2021/10/28 15:29:15;;;;;;;7.33;6.47;;;;;;;21.89;60.56;101753.47;1759113;80;21092;-48
2021/10/28 15:32:06;;;;;;;8.80;7.47;;;;;;;21.93;60.45;101751.77;1751181;80;21099;-47
2021/10/28 15:55:47;;;;;;;6.20;5.22;;;;;;;22.13;59.47;101767.20;1753794;80;21115;-46
2021/10/28 16:21:53;;;;;;;6.08;5.08;;;;;;;22.38;59.40;101770.05;1732692;81;21124;-48
2021/10/28 16:24:16;;;;;;;6.62;4.95;;;;;;;22.42;59.36;101773.86;1733217;81;21492;-45
2021/10/28 16:26:42;;;;;;;6.55;5.22;;;;;;;22.45;59.26;101773.27;1730327;81;21064;-46
2021/10/28 16:29:11;;;;;;;8.23;6.35;;;;;;;22.47;59.19;101769.05;1756282;80;21791;-46
2021/10/28 16:31:36;;;;;;;8.50;6.10;;;;;;;22.51;59.09;101780.34;1725461;81;21184;-45
2021/10/28 16:34:02;;;;;;;10.18;5.97;;;;;;;22.51;59.02;101770.08;1753201;80;21069;-46
2021/10/28 16:36:29;;;;;;;10.00;6.72;;;;;;;22.51;58.99;101770.63;1750935;80;21059;-49
2021/10/28 16:38:55;;;;;;;8.98;5.78;;;;;;;22.51;58.95;101777.00;1755415;80;21542;-47
2021/10/28 16:41:21;;;;;;;7.92;5.60;;;;;;;22.50;58.91;101781.46;1754035;80;21081;-47
2021/10/28 16:43:47;;;;;;;8.78;6.58;;;;;;;22.49;58.90;101779.25;1758700;80;21028;-48
2021/10/28 16:46:14;;;;;;;9.03;6.62;;;;;;;22.48;58.87;101781.79;1764044;81;21110;-52
2021/10/28 16:48:40;;;;;;;8.45;6.62;;;;;;;22.47;58.83;101778.75;1761490;79;21701;-48
2021/10/28 16:51:06;;;;;;;68.92;24.90;;;;;;;22.47;58.79;101779.31;1756798;79;21062;-51
2021/10/28 16:53:36;;;;;;;17.02;9.88;;;;;;;22.50;58.75;101781.46;1757601;79;21545;-47
2021/10/28 16:56:04;;;;;;;19.40;11.15;;;;;;;22.51;58.62;101781.16;1760917;80;21247;-48
2021/10/28 16:58:30;;;;;;;29.30;14.73;;;;;;;22.52;58.44;101789.75;1763897;80;21140;-44
2021/10/28 17:00:56;;;;;;;33.40;16.05;;;;;;;22.52;58.26;101789.75;1762607;81;21125;-46
2021/10/28 17:03:22;;;;;;;21.35;13.35;;;;;;;22.52;58.10;101795.86;1756665;81;21067;-48
2021/10/28 17:05:49;;;;;;;222.78;80.65;;;;;;;22.52;57.97;101800.02;1759296;80;21071;-46
2021/10/28 17:08:15;;;;;;;25.20;14.53;;;;;;;22.51;57.91;101799.19;1754660;80;21087;-47
2021/10/28 17:10:42;;;;;;;29.95;16.05;;;;;;;22.51;57.90;101801.14;1760906;81;21116;-47
2021/10/28 17:13:08;;;;;;;20.75;13.32;;;;;;;22.50;57.82;101802.27;1762682;80;21355;-50
2021/10/28 17:15:35;;;;;;;17.85;13.15;;;;;;;22.48;57.74;101801.20;1763908;80;21054;-47
2021/10/28 17:18:01;;;;;;;20.72;13.13;;;;;;;22.49;57.70;101800.64;1764505;80;20984;-49
2021/10/28 17:20:33;;;;;;;18.27;13.22;;;;;;;22.47;57.64;101797.33;1765616;80;21125;-45
2021/10/28 17:22:56;;;;;;;17.23;11.83;;;;;;;22.45;57.61;101799.02;1761601;80;21546;-49
2021/10/28 17:25:25;;;;;;;19.02;12.98;;;;;;;22.45;57.59;101794.86;1763348;79;21054;-50
2021/10/28 17:27:52;;;;;;;21.95;13.48;;;;;;;22.43;57.55;101790.20;1762974;80;21015;-48
2021/10/28 17:30:19;;;;;;;20.02;13.48;;;;;;;22.42;57.47;101796.87;1709594;81;21103;-50
2021/10/28 17:32:46;;;;;;;17.57;13.32;;;;;;;22.40;57.39;101796.37;1762036;80;21077;-48
2021/10/28 17:35:13;;;;;;;19.52;13.72;;;;;;;22.37;57.31;101792.80;1761742;80;21101;-47
2021/10/28 17:37:41;;;;;;;18.05;13.75;;;;;;;22.36;57.24;101794.51;1761711;81;21859;-48
2021/10/28 17:40:09;;;;;;;19.10;14.40;;;;;;;22.32;57.23;101797.05;1764600;80;21005;-48
2021/10/28 17:42:35;;;;;;;18.90;14.10;;;;;;;22.30;57.22;101795.16;1764066;80;21048;-50
2021/10/28 17:45:03;;;;;;;20.05;15.03;;;;;;;22.27;57.24;101795.78;1760733;80;21423;-46
2021/10/28 17:47:30;;;;;;;23.10;16.32;;;;;;;22.25;57.26;101788.31;1759880;79;20997;-47
2021/10/28 17:49:56;;;;;;;19.87;14.53;;;;;;;22.25;57.28;101791.09;1759438;80;21424;-48
2021/10/28 17:52:23;;;;;;;20.62;14.95;;;;;;;22.24;57.32;101791.64;1745504;80;21108;-46
2021/10/28 17:54:49;;;;;;;16.73;12.28;;;;;;;22.23;57.33;101784.48;1759930;80;21056;-47
2021/10/28 17:57:15;;;;;;;19.95;16.82;;;;;;;22.26;57.34;101795.52;1759753;80;20911;-49
2021/10/28 17:59:42;;;;;;;22.90;15.28;;;;;;;22.28;57.45;101791.29;1758192;80;21112;-51
2021/10/28 18:02:10;;;;;;;24.20;16.62;;;;;;;22.29;57.58;101792.12;1762000;80;21537;-48
2021/10/28 18:04:36;;;;;;;22.58;18.05;;;;;;;22.31;57.70;101792.65;1764594;81;21037;-48
2021/10/28 18:07:05;;;;;;;25.43;17.92;;;;;;;22.32;57.82;101795.09;1761618;79;21483;-45
2021/10/28 18:09:31;;;;;;;35.35;22.60;;;;;;;22.31;57.89;101799.02;1758487;79;21116;-44
2021/10/28 18:11:57;;;;;;;101.35;41.25;;;;;;;22.33;57.96;101794.53;1763703;81;20922;-45
2021/10/28 18:14:27;;;;;;;169.05;65.95;;;;;;;22.36;58.09;101793.95;1755076;80;22096;-44
2021/10/28 18:16:51;;;;;;;111.75;45.45;;;;;;;22.37;58.21;101794.74;1731371;81;21054;-46
2021/10/28 18:19:18;;;;;;;120.65;46.95;;;;;;;22.37;58.29;101798.34;1762211;80;21086;-45
2021/10/28 18:21:47;;;;;;;115.00;46.08;;;;;;;22.38;58.36;101795.83;1760882;79;20991;-48
2021/10/28 18:24:14;;;;;;;49.75;26.25;;;;;;;22.37;58.36;101794.18;1757428;81;21019;-48
2021/10/28 18:26:40;;;;;;;54.85;28.15;;;;;;;22.37;58.31;101790.59;1761129;80;21650;-48
2021/10/28 18:29:06;;;;;;;35.85;23.32;;;;;;;22.35;58.15;101791.47;1761844;81;21100;-48
2021/10/28 18:31:34;;;;;;;31.07;19.87;;;;;;;22.32;58.07;101793.71;1757756;80;21410;-48
2021/10/28 18:34:04;;;;;;;24.52;18.90;;;;;;;22.29;57.95;101797.10;1760849;81;21493;-47
2021/10/28 18:36:31;;;;;;;25.17;19.10;;;;;;;22.25;57.81;101787.75;1753720;80;21086;-47
2021/10/28 18:38:58;;;;;;;30.27;20.25;;;;;;;22.22;57.66;101793.09;1773120;80;22037;-48
2021/10/28 18:41:25;;;;;;;27.35;20.45;;;;;;;22.20;57.59;101796.72;1748896;80;21065;-47
2021/10/28 18:43:51;;;;;;;26.90;19.32;;;;;;;22.17;57.49;101791.23;1753773;81;21056;-51
2021/10/28 18:46:21;;;;;;;35.20;21.65;;;;;;;22.14;57.44;101796.00;1774744;78;21117;-50
2021/10/28 18:48:45;;;;;;;32.65;21.68;;;;;;;22.12;57.35;101801.58;1779334;78;21540;-50
2021/10/28 18:51:12;;;;;;;32.00;20.77;;;;;;;22.09;56.85;101798.86;1750658;78;21278;-51
2021/10/28 18:53:41;;;;;;;26.50;19.10;;;;;;;22.06;56.26;101794.50;1749808;78;20897;-51
2021/10/28 18:56:07;;;;;;;28.65;19.73;;;;;;;22.03;55.69;101788.98;1777719;78;21558;-47
2021/10/28 18:58:33;;;;;;;28.15;19.67;;;;;;;22.02;55.20;101792.07;1779967;78;21135;-49
2021/10/28 19:01:00;;;;;;;26.60;19.17;;;;;;;21.99;54.81;101787.11;1775009;78;21587;-50
2021/10/28 19:03:26;;;;;;;26.12;16.95;;;;;;;21.96;54.65;101787.17;1777193;79;21232;-50
2021/10/28 19:05:54;;;;;;;24.25;16.95;;;;;;;21.93;54.66;101788.34;1777491;78;21683;-48
2021/10/28 19:08:21;;;;;;;22.95;17.27;;;;;;;21.91;54.68;101796.09;1776267;78;21527;-49
2021/10/28 19:10:47;;;;;;;36.60;19.37;;;;;;;21.88;54.71;101792.81;1780396;78;21491;-49
2021/10/28 19:13:13;;;;;;;29.35;17.10;;;;;;;21.86;54.73;101792.28;1781586;78;20898;-47
2021/10/28 19:15:39;;;;;;;25.23;18.52;;;;;;;21.85;54.80;101787.06;1780259;78;21224;-48
2021/10/28 19:18:10;;;;;;;23.35;16.87;;;;;;;21.85;54.93;101784.30;1781194;78;20910;-49
2021/10/28 19:20:35;;;;;;;27.85;18.37;;;;;;;21.85;55.04;101786.47;1773158;78;21034;-49
2021/10/28 19:23:01;;;;;;;29.00;17.80;;;;;;;21.85;55.11;101786.47;1777248;79;21063;-48
2021/10/28 19:25:27;;;;;;;26.25;17.17;;;;;;;21.84;55.22;101787.62;1775788;80;21756;-46
2021/10/28 19:27:56;;;;;;;21.25;15.70;;;;;;;21.86;55.34;101793.66;1778462;79;21929;-50
2021/10/28 19:30:43;;;;;;;24.18;17.00;;;;;;;21.85;55.48;101789.24;1775420;78;21116;-48
2021/10/28 19:33:11;;;;;;;31.65;18.17;;;;;;;21.86;55.56;101805.30;1779541;78;21065;-47
2021/10/28 19:35:35;;;;;;;24.32;16.55;;;;;;;21.84;55.57;101804.24;1782738;79;21018;-47
2021/10/28 19:38:11;;;;;;;23.18;16.20;;;;;;;21.84;55.57;101811.73;1783077;78;21052;-50
2021/10/28 19:48:20;;;;;;;24.43;15.00;;;;;;;21.80;55.84;101814.84;1779180;78;21442;-50
2021/10/28 19:50:47;;;;;;;20.55;14.07;;;;;;;21.80;55.95;101812.08;1780188;78;21080;-49
2021/10/28 19:53:14;;;;;;;23.07;14.13;;;;;;;21.83;56.11;101812.28;1778747;78;21526;-47
2021/10/28 19:55:41;;;;;;;23.67;13.93;;;;;;;21.87;56.30;101813.33;1780090;78;21068;-48
2021/10/28 19:58:11;;;;;;;26.40;14.58;;;;;;;21.92;56.54;101817.14;1773848;78;21076;-51
2021/10/28 20:00:45;;;;;;;28.10;15.20;;;;;;;21.95;56.73;101811.02;1777077;78;21034;-45
2021/10/28 20:06:07;;;;;;;205.35;57.62;;;;;;;22.03;57.02;101817.25;1753099;81;21147;-45
2021/10/28 20:14:13;;;;;;;271.82;89.83;;;;;;;22.07;57.19;101816.90;1772783;79;21052;-45